Time;durP1;ratioP1;P1;durP2;ratioP2;P2;SDS_P1;SDS_P2;PMS_P1;PMS_P2;Temp;Humidity;BMP_temperature;BMP_pressure;BME280_temperature;BME280_humidity;BME280_pressure;Samples;Min_cycle;Max_cycle;Signal;HPM_P1;HPM_P2
2022/03/31 11:16:23;;;;;;;1.25;1.13;;;14.50;74.10;;;;;;2299813;62;30095;-77
2022/03/31 11:18:57;;;;;;;2.03;1.40;;;14.40;72.90;;;;;;2284148;62;30339;-77
2022/03/31 11:21:23;;;;;;;1.60;1.05;;;14.40;75.10;;;;;;2291006;62;30198;-78
2022/03/31 11:23:50;;;;;;;1.50;1.40;;;14.40;74.90;;;;;;2283949;62;30056;-77
2022/03/31 11:26:29;;;;;;;1.00;1.00;;;14.40;75.70;;;;;;2283901;62;30553;-77
2022/03/31 11:28:55;;;;;;;1.00;0.93;;;14.50;75.90;;;;;;2277588;62;30125;-77
2022/03/31 11:31:22;;;;;;;3.08;2.00;;;14.50;76.00;;;;;;2291350;62;29904;-77
2022/03/31 11:33:48;;;;;;;0.90;0.85;;;14.60;77.50;;;;;;2291347;62;30111;-77
2022/03/31 11:36:18;;;;;;;1.50;1.10;;;14.60;76.70;;;;;;2276516;62;30136;-78
2022/03/31 11:38:56;;;;;;;1.20;1.10;;;14.60;77.00;;;;;;2284688;62;30615;-77
2022/03/31 11:41:22;;;;;;;1.33;0.90;;;14.60;77.00;;;;;;2283862;62;30040;-78
2022/03/31 11:43:48;;;;;;;1.08;1.08;;;14.60;77.10;;;;;;2276748;62;31107;-78
2022/03/31 11:46:19;;;;;;;1.20;1.13;;;14.60;77.10;;;;;;2289005;62;30673;-75
2022/03/31 11:48:46;;;;;;;1.00;1.00;;;14.60;77.50;;;;;;2275632;62;29939;-76
2022/03/31 11:51:13;;;;;;;1.00;1.00;;;14.60;77.00;;;;;;2282664;62;30066;-76
2022/03/31 11:53:41;;;;;;;0.85;0.85;;;14.60;76.70;;;;;;2275567;62;30131;-76
2022/03/31 11:56:21;;;;;;;1.00;1.00;;;14.70;76.80;;;;;;2275557;62;31177;-76
2022/03/31 11:58:50;;;;;;;3.47;1.50;;;14.70;76.40;;;;;;2282956;62;29941;-77
2022/03/31 12:01:22;;;;;;;1.10;1.10;;;14.70;75.80;;;;;;2282658;62;30237;-77
2022/03/31 12:03:48;;;;;;;0.98;0.95;;;14.60;75.50;;;;;;2275114;62;30063;-77
2022/03/31 12:06:15;;;;;;;1.92;0.88;;;14.50;76.40;;;;;;2275534;62;30099;-77
2022/03/31 12:08:44;;;;;;;1.42;0.80;;;14.60;76.20;;;;;;2268673;62;30201;-77
2022/03/31 12:11:12;;;;;;;1.50;1.10;;;14.60;75.90;;;;;;2275330;62;30137;-77
2022/03/31 12:13:51;;;;;;;1.30;1.20;;;14.60;75.70;;;;;;2276016;62;30269;-77
2022/03/31 12:16:17;;;;;;;3.33;0.88;;;14.60;74.70;;;;;;2286207;62;30284;-79
2022/03/31 12:18:44;;;;;;;1.60;1.15;;;14.60;75.30;;;;;;2280305;62;30098;-76
2022/03/31 12:21:11;;;;;;;1.13;1.00;;;14.70;75.70;;;;;;2289483;62;30361;-77
2022/03/31 12:23:45;;;;;;;1.20;1.13;;;14.70;75.70;;;;;;2290021;62;30057;-77
2022/03/31 12:26:20;;;;;;;1.17;1.10;;;14.60;75.50;;;;;;2274155;62;30162;-77
2022/03/31 12:28:48;;;;;;;1.02;1.02;;;14.60;75.50;;;;;;2270460;62;30194;-76
2022/03/31 12:31:27;;;;;;;1.17;1.08;;;14.60;75.30;;;;;;2276826;62;30178;-77
2022/03/31 12:34:07;;;;;;;1.30;1.00;;;14.60;74.70;;;;;;2277456;62;31120;-78
2022/03/31 12:36:37;;;;;;;0.98;0.98;;;14.60;74.80;;;;;;2284073;62;30564;-77
2022/03/31 12:39:13;;;;;;;1.00;1.00;;;14.60;74.90;;;;;;2283683;62;30027;-77
2022/03/31 12:41:42;;;;;;;1.20;1.10;;;14.70;74.60;;;;;;2270518;62;30031;-77
2022/03/31 12:44:20;;;;;;;3.67;1.10;;;14.70;74.50;;;;;;2277363;62;30866;-77
2022/03/31 12:46:55;;;;;;;1.05;1.05;;;14.70;75.10;;;;;;2276748;62;32027;-78
2022/03/31 12:49:31;;;;;;;0.90;0.80;;;14.70;75.20;;;;;;2284386;62;30171;-76
2022/03/31 12:51:58;;;;;;;1.10;1.10;;;14.70;75.20;;;;;;2284501;62;30447;-77
2022/03/31 12:54:47;;;;;;;0.93;0.93;;;14.60;75.00;;;;;;2283987;62;31579;-77
2022/03/31 12:57:19;;;;;;;1.05;1.05;;;14.60;75.00;;;;;;2277976;62;30506;-78
2022/03/31 13:00:05;;;;;;;2.25;1.00;;;14.60;75.00;;;;;;2284276;62;30056;-76
2022/03/31 13:02:35;;;;;;;1.05;1.00;;;14.60;74.10;;;;;;2268760;62;30128;-76
2022/03/31 13:05:02;;;;;;;3.03;1.20;;;14.60;74.60;;;;;;2274443;62;30979;-77
2022/03/31 13:07:34;;;;;;;0.98;0.98;;;14.70;74.60;;;;;;2275860;62;32232;-77
2022/03/31 13:10:00;;;;;;;1.10;1.10;;;14.60;74.80;;;;;;2282845;62;30134;-77
2022/03/31 13:12:28;;;;;;;1.30;1.17;;;14.60;75.00;;;;;;2267980;62;30329;-77
2022/03/31 13:14:54;;;;;;;2.08;1.10;;;14.60;75.00;;;;;;2273792;62;30259;-76
2022/03/31 13:17:24;;;;;;;1.23;1.10;;;14.60;74.60;;;;;;2271857;62;30586;-76
2022/03/31 13:19:51;;;;;;;1.00;0.95;;;14.60;74.40;;;;;;2284120;62;30631;-77
2022/03/31 13:22:28;;;;;;;1.77;1.10;;;14.60;74.50;;;;;;2283711;62;30426;-78
2022/03/31 13:24:57;;;;;;;1.65;1.00;;;14.70;74.10;;;;;;2276509;62;30551;-79
2022/03/31 13:27:32;;;;;;;0.98;0.90;;;14.60;74.40;;;;;;2277010;62;29963;-76
2022/03/31 13:29:58;;;;;;;3.17;1.20;;;14.60;74.20;;;;;;2269723;62;30075;-78
2022/03/31 13:32:24;;;;;;;1.20;1.20;;;14.60;74.50;;;;;;2284135;62;30042;-78
2022/03/31 13:34:49;;;;;;;1.20;1.20;;;14.60;74.80;;;;;;2269658;62;31065;-78
2022/03/31 13:37:20;;;;;;;3.72;1.70;;;14.60;75.00;;;;;;2283855;62;31250;-78
2022/03/31 13:39:46;;;;;;;1.80;1.70;;;14.60;75.10;;;;;;2283839;62;30146;-79
2022/03/31 13:42:12;;;;;;;1.98;1.60;;;14.50;74.90;;;;;;2269584;62;30422;-78
2022/03/31 13:44:38;;;;;;;2.35;1.60;;;14.50;75.10;;;;;;2276493;62;31372;-77
2022/03/31 13:47:05;;;;;;;1.83;1.73;;;14.60;74.80;;;;;;2276580;62;30723;-76
2022/03/31 13:49:31;;;;;;;2.03;1.50;;;14.60;74.90;;;;;;2276432;62;30103;-81
2022/03/31 13:51:57;;;;;;;3.38;1.63;;;14.50;74.60;;;;;;2266745;62;31013;-78
2022/03/31 13:54:25;;;;;;;1.20;1.20;;;14.60;74.90;;;;;;2275549;62;31466;-77
2022/03/31 13:56:51;;;;;;;3.60;1.50;;;14.60;74.30;;;;;;2276031;62;30140;-78
2022/03/31 14:02:03;;;;;;;4.55;1.40;;;14.60;74.70;;;;;;2270450;62;30123;-79
2022/03/31 14:04:31;;;;;;;4.53;1.48;;;14.60;74.80;;;;;;2269587;62;30103;-80
2022/03/31 14:07:00;;;;;;;3.13;1.30;;;14.60;75.00;;;;;;2276672;62;30117;-78
2022/03/31 14:09:26;;;;;;;2.38;1.50;;;14.70;74.70;;;;;;2281071;62;30361;-78
2022/03/31 14:11:57;;;;;;;1.40;1.30;;;14.70;75.10;;;;;;2275296;62;30187;-80
2022/03/31 14:14:23;;;;;;;1.67;1.30;;;14.70;74.80;;;;;;2282806;62;32153;-80
2022/03/31 14:16:54;;;;;;;1.27;1.23;;;14.70;74.90;;;;;;2274176;62;30648;-79
2022/03/31 14:19:23;;;;;;;1.30;1.20;;;14.70;74.40;;;;;;2282392;62;30960;-79
2022/03/31 14:21:50;;;;;;;1.27;1.17;;;14.70;74.00;;;;;;2276550;62;30156;-79
2022/03/31 14:24:20;;;;;;;1.20;1.10;;;14.70;73.90;;;;;;2282798;62;30830;-78
2022/03/31 14:26:47;;;;;;;1.30;1.20;;;14.70;73.70;;;;;;2282356;62;30744;-81
2022/03/31 14:29:14;;;;;;;1.67;1.20;;;14.70;73.80;;;;;;2269621;62;30172;-79
2022/03/31 14:31:40;;;;;;;1.50;1.40;;;14.70;74.10;;;;;;2269473;62;30233;-82
2022/03/31 14:34:07;;;;;;;1.50;1.40;;;14.70;74.30;;;;;;2270517;62;31015;-78
2022/03/31 14:36:35;;;;;;;1.35;1.25;;;14.70;74.20;;;;;;2267819;62;30408;-80
2022/03/31 14:39:02;;;;;;;1.17;1.10;;;14.70;74.10;;;;;;2261214;62;30602;-79
2022/03/31 14:41:27;;;;;;;2.10;1.30;;;14.70;73.70;;;;;;2268262;62;30283;-80
2022/03/31 14:43:57;;;;;;;1.30;1.20;;;14.70;73.60;;;;;;2268262;62;31296;-78
2022/03/31 14:46:23;;;;;;;1.30;1.20;;;14.70;73.60;;;;;;2261367;62;30647;-79
2022/03/31 14:48:51;;;;;;;1.45;1.33;;;14.70;73.10;;;;;;2268120;62;30112;-78
2022/03/31 14:51:19;;;;;;;2.42;1.30;;;14.80;73.30;;;;;;2268360;62;30301;-79
2022/03/31 14:53:45;;;;;;;1.38;1.33;;;14.70;73.50;;;;;;2261197;62;30796;-77
2022/03/31 14:56:12;;;;;;;1.10;1.10;;;14.80;73.60;;;;;;2268071;62;30196;-79
2022/03/31 14:58:38;;;;;;;1.52;1.20;;;14.70;74.00;;;;;;2268044;62;30194;-79
2022/03/31 15:01:04;;;;;;;1.52;1.30;;;14.70;73.50;;;;;;2274981;62;29946;-79
2022/03/31 15:03:30;;;;;;;1.85;1.20;;;14.70;73.40;;;;;;2267677;62;31276;-79
2022/03/31 15:05:58;;;;;;;1.20;1.20;;;14.70;73.10;;;;;;2261077;62;31336;-79
2022/03/31 15:08:25;;;;;;;1.50;1.40;;;14.70;72.90;;;;;;2267999;62;30037;-80
2022/03/31 15:16:21;;;;;;;1.40;1.30;;;14.80;72.90;;;;;;2260454;62;31438;-78
2022/03/31 15:18:48;;;;;;;1.23;1.23;;;14.70;73.10;;;;;;2264690;62;30287;-78
2022/03/31 15:21:14;;;;;;;1.10;1.10;;;14.70;73.50;;;;;;2257585;63;30063;-78
2022/03/31 15:23:42;;;;;;;1.35;1.05;;;14.70;73.10;;;;;;2258425;63;30234;-79
2022/03/31 15:26:10;;;;;;;1.73;1.30;;;14.70;73.70;;;;;;2262515;62;31286;-77
2022/03/31 15:28:39;;;;;;;1.50;1.40;;;14.70;72.70;;;;;;2266030;62;30206;-79
2022/03/31 15:31:07;;;;;;;1.75;1.13;;;14.70;72.60;;;;;;2265472;62;30403;-78
2022/03/31 15:33:33;;;;;;;1.20;1.10;;;14.70;73.00;;;;;;2264599;62;30431;-80
2022/03/31 15:36:01;;;;;;;1.00;1.00;;;14.70;72.90;;;;;;2264348;62;30603;-77
2022/03/31 15:38:26;;;;;;;1.40;1.30;;;14.70;72.70;;;;;;2266984;62;29945;-79
2022/03/31 15:40:52;;;;;;;1.73;1.33;;;14.80;72.70;;;;;;2267062;62;30274;-77
2022/03/31 15:43:18;;;;;;;1.40;1.30;;;14.80;72.90;;;;;;2266853;62;31075;-80
2022/03/31 15:45:44;;;;;;;2.88;1.33;;;14.70;72.90;;;;;;2266958;62;30503;-80
2022/03/31 15:48:10;;;;;;;1.13;1.05;;;14.70;73.10;;;;;;2265955;62;30052;-79
2022/03/31 15:50:36;;;;;;;2.58;1.38;;;14.70;72.80;;;;;;2266730;62;31680;-77
2022/03/31 15:53:02;;;;;;;1.33;1.15;;;14.70;72.30;;;;;;2266723;62;30027;-78
2022/03/31 15:55:28;;;;;;;0.80;0.80;;;14.70;72.30;;;;;;2266441;62;30822;-79
2022/03/31 15:57:54;;;;;;;1.00;1.00;;;14.70;72.60;;;;;;2266204;62;30090;-80
2022/03/31 16:00:23;;;;;;;0.98;0.98;;;14.80;72.30;;;;;;2267846;62;30302;-83
2022/03/31 16:02:49;;;;;;;1.40;1.20;;;14.80;72.50;;;;;;2268580;62;30198;-80
2022/03/31 16:05:15;;;;;;;1.15;1.05;;;14.70;72.60;;;;;;2268976;62;31986;-88
2022/03/31 16:07:41;;;;;;;0.80;0.80;;;14.70;72.40;;;;;;2269176;62;30133;-81
2022/03/31 16:10:07;;;;;;;1.50;1.20;;;14.70;72.60;;;;;;2268709;62;30274;-82
2022/03/31 16:12:34;;;;;;;1.77;1.20;;;14.60;72.80;;;;;;2268572;62;30942;-84
2022/03/31 16:15:01;;;;;;;1.00;1.00;;;14.70;72.50;;;;;;2268584;62;30585;-83
2022/03/31 16:17:27;;;;;;;1.00;1.00;;;14.60;72.20;;;;;;2269415;62;30385;-86
2022/03/31 16:19:53;;;;;;;1.23;1.08;;;14.60;72.10;;;;;;2276568;62;30163;-84
2022/03/31 16:22:20;;;;;;;0.82;0.82;;;14.60;72.20;;;;;;2277061;62;30900;-81
2022/03/31 16:24:47;;;;;;;0.95;0.90;;;14.60;72.10;;;;;;2268998;62;30791;-82
2022/03/31 16:27:15;;;;;;;1.15;1.10;;;14.60;72.40;;;;;;2277200;62;30673;-86
2022/03/31 16:29:42;;;;;;;1.00;1.00;;;14.60;72.10;;;;;;2276519;62;30154;-80
2022/03/31 16:32:10;;;;;;;3.30;1.20;;;14.50;72.80;;;;;;2276469;62;31060;-82
2022/03/31 16:34:36;;;;;;;1.08;1.00;;;14.50;72.60;;;;;;2274770;62;30678;-84
2022/03/31 16:37:03;;;;;;;3.35;1.13;;;14.60;72.20;;;;;;2268974;62;30409;-79
2022/03/31 16:39:30;;;;;;;1.75;1.00;;;14.60;72.10;;;;;;2274835;62;30334;-80
2022/03/31 16:41:56;;;;;;;1.83;0.98;;;14.70;71.90;;;;;;2276877;62;30053;-80
2022/03/31 16:44:22;;;;;;;1.33;1.10;;;14.70;72.50;;;;;;2275968;62;30811;-80
2022/03/31 16:46:52;;;;;;;1.88;1.00;;;14.80;71.80;;;;;;2276907;62;30309;-80
2022/03/31 16:49:19;;;;;;;0.75;0.75;;;14.90;71.50;;;;;;2277106;62;30247;-81
2022/03/31 16:51:45;;;;;;;0.95;0.95;;;14.90;71.50;;;;;;2276260;62;30724;-81
2022/03/31 16:54:13;;;;;;;1.40;0.93;;;14.90;71.50;;;;;;2277173;62;30633;-79
2022/03/31 16:56:39;;;;;;;1.25;1.15;;;15.00;71.50;;;;;;2276520;62;30124;-81
2022/03/31 16:59:05;;;;;;;2.05;1.10;;;15.00;71.40;;;;;;2276440;62;30065;-79
2022/03/31 17:01:31;;;;;;;3.55;1.60;;;15.00;71.80;;;;;;2276143;62;30294;-79
2022/03/31 17:03:57;;;;;;;3.78;2.15;;;15.00;71.80;;;;;;2270970;62;31707;-80
2022/03/31 17:06:23;;;;;;;7.28;3.20;;;14.90;72.00;;;;;;2275119;62;30796;-80
2022/03/31 17:08:49;;;;;;;9.25;3.92;;;14.90;72.80;;;;;;2261456;62;30241;-81
2022/03/31 17:11:15;;;;;;;7.40;3.20;;;14.90;73.00;;;;;;2268682;62;30315;-81
2022/03/31 17:13:41;;;;;;;5.68;2.83;;;14.90;73.00;;;;;;2268027;62;30531;-82
2022/03/31 17:16:07;;;;;;;9.18;3.13;;;14.90;73.00;;;;;;2259136;63;30169;-82
2022/03/31 17:18:33;;;;;;;5.38;2.95;;;14.90;72.90;;;;;;2260662;63;29890;-78
2022/03/31 17:20:59;;;;;;;7.47;2.70;;;14.90;73.00;;;;;;2259668;63;29970;-78
2022/03/31 17:23:24;;;;;;;7.85;3.20;;;14.90;73.00;;;;;;2260561;63;30111;-79
2022/03/31 17:25:53;;;;;;;7.55;2.95;;;14.80;73.20;;;;;;2260539;63;29999;-78
2022/03/31 17:28:21;;;;;;;8.63;2.80;;;14.80;74.00;;;;;;2259892;63;30230;-79
2022/03/31 17:30:47;;;;;;;6.45;2.67;;;14.80;74.20;;;;;;2260402;63;30744;-79
2022/03/31 17:33:16;;;;;;;6.75;2.30;;;14.80;73.90;;;;;;2259177;62;32243;-80
2022/03/31 17:35:42;;;;;;;5.47;2.38;;;14.80;73.70;;;;;;2266052;62;30534;-79
2022/03/31 17:38:09;;;;;;;5.68;2.20;;;14.80;73.50;;;;;;2253409;62;30701;-80
2022/03/31 17:40:44;;;;;;;7.00;2.50;;;14.80;73.40;;;;;;2260732;62;30625;-79
2022/03/31 17:43:10;;;;;;;6.07;2.67;;;14.80;73.30;;;;;;2259951;63;30581;-80
2022/03/31 17:45:36;;;;;;;5.93;2.30;;;14.90;73.40;;;;;;2260347;63;30310;-80
2022/03/31 17:48:02;;;;;;;3.65;2.08;;;14.80;73.30;;;;;;2260203;63;30044;-81
2022/03/31 17:50:28;;;;;;;3.95;1.83;;;14.80;73.60;;;;;;2259655;63;30067;-80
2022/03/31 17:52:55;;;;;;;3.17;1.90;;;14.80;73.30;;;;;;2260581;62;31857;-80
2022/03/31 17:55:21;;;;;;;4.97;1.90;;;14.90;73.10;;;;;;2261929;62;30270;-81
2022/03/31 17:57:48;;;;;;;2.58;1.73;;;14.90;73.70;;;;;;2267940;62;30760;-81
2022/03/31 18:00:16;;;;;;;2.28;1.50;;;14.90;72.80;;;;;;2268424;62;30962;-81
2022/03/31 18:02:42;;;;;;;2.63;1.58;;;15.00;72.60;;;;;;2268050;62;30039;-81
2022/03/31 18:05:09;;;;;;;4.03;1.42;;;15.20;72.50;;;;;;2267938;62;30001;-81
2022/03/31 18:07:36;;;;;;;2.20;1.38;;;15.30;72.50;;;;;;2267811;62;30498;-80
2022/03/31 18:10:03;;;;;;;2.10;1.33;;;15.40;72.30;;;;;;2262805;62;31025;-80
2022/03/31 18:12:30;;;;;;;2.78;1.10;;;15.50;72.20;;;;;;2261842;62;30171;-80
2022/03/31 18:14:59;;;;;;;1.38;1.00;;;15.50;72.30;;;;;;2268358;62;30093;-78
2022/03/31 18:17:25;;;;;;;1.77;1.10;;;15.70;72.30;;;;;;2281024;62;30524;-77
2022/03/31 18:19:51;;;;;;;2.30;1.10;;;15.70;72.20;;;;;;2277229;62;31012;-79
2022/03/31 18:22:18;;;;;;;1.67;0.93;;;15.80;72.00;;;;;;2284777;62;30301;-81
2022/03/31 18:24:44;;;;;;;1.17;1.08;;;15.90;71.70;;;;;;2284246;62;30018;-81
2022/03/31 18:27:10;;;;;;;3.53;1.48;;;15.90;71.60;;;;;;2277386;62;30128;-78
2022/03/31 18:35:11;;;;;;;2.13;0.98;;;16.00;71.40;;;;;;2278454;62;30307;-81
2022/03/31 18:37:40;;;;;;;2.15;1.00;;;16.00;71.30;;;;;;2276910;62;30516;-82
2022/03/31 18:40:07;;;;;;;2.58;1.02;;;15.90;71.30;;;;;;2277143;62;30782;-81
2022/03/31 18:42:33;;;;;;;0.88;0.70;;;16.00;71.30;;;;;;2277177;62;30065;-81
2022/03/31 18:44:59;;;;;;;0.90;0.85;;;16.00;71.30;;;;;;2270256;62;30166;-79
2022/03/31 18:47:26;;;;;;;2.92;1.02;;;16.00;71.30;;;;;;2284612;62;30188;-83
2022/03/31 18:49:53;;;;;;;2.03;0.90;;;16.00;71.20;;;;;;2284608;62;31600;-82
2022/03/31 18:52:22;;;;;;;2.75;0.93;;;16.00;71.20;;;;;;2276929;62;30631;-82
2022/03/31 18:54:48;;;;;;;1.17;0.82;;;16.00;71.20;;;;;;2284157;62;30390;-80
2022/03/31 18:57:14;;;;;;;1.70;1.23;;;16.10;71.20;;;;;;2284403;62;30172;-79
2022/03/31 18:59:41;;;;;;;1.75;0.90;;;16.20;71.10;;;;;;2276903;62;30246;-81
2022/03/31 19:02:08;;;;;;;0.82;0.60;;;16.30;71.00;;;;;;2284576;62;30904;-81
2022/03/31 19:04:34;;;;;;;4.47;0.80;;;16.30;71.00;;;;;;2284459;62;29991;-80
2022/03/31 19:07:00;;;;;;;2.17;1.00;;;16.40;70.80;;;;;;2284162;62;30127;-81
2022/03/31 19:09:32;;;;;;;2.53;0.98;;;16.50;70.80;;;;;;2284437;62;30964;-82
2022/03/31 19:11:58;;;;;;;0.50;0.50;;;16.50;70.50;;;;;;2277201;62;31028;-80
2022/03/31 19:14:25;;;;;;;0.68;0.60;;;16.50;70.50;;;;;;2276864;62;30092;-79
2022/03/31 19:16:51;;;;;;;0.65;0.65;;;16.60;70.70;;;;;;2284206;62;30258;-80
2022/03/31 19:19:18;;;;;;;1.48;0.60;;;16.60;70.10;;;;;;2284155;62;32184;-79
2022/03/31 19:21:44;;;;;;;1.08;0.73;;;16.60;70.00;;;;;;2270201;62;31628;-80
2022/03/31 19:24:11;;;;;;;0.73;0.55;;;16.70;70.10;;;;;;2279845;62;30628;-80
2022/03/31 19:26:38;;;;;;;0.50;0.43;;;16.70;69.80;;;;;;2283619;62;30223;-80
2022/03/31 19:29:04;;;;;;;1.05;0.70;;;16.70;69.80;;;;;;2280568;62;31772;-80
2022/03/31 19:31:31;;;;;;;0.50;0.50;;;16.70;69.60;;;;;;2275318;62;32337;-80
2022/03/31 19:34:00;;;;;;;1.65;0.88;;;16.70;69.40;;;;;;2283842;62;31024;-80
2022/03/31 19:36:26;;;;;;;1.73;0.70;;;16.70;69.20;;;;;;2277012;62;30171;-80
2022/03/31 19:38:54;;;;;;;0.52;0.47;;;16.80;69.20;;;;;;2275491;62;30736;-81
2022/03/31 19:41:26;;;;;;;0.98;0.60;;;16.70;69.20;;;;;;2276506;62;30735;-79
2022/03/31 19:43:53;;;;;;;0.40;0.38;;;16.70;68.90;;;;;;2282635;62;30571;-79
2022/03/31 19:46:21;;;;;;;1.30;0.70;;;16.80;69.40;;;;;;2283383;62;30294;-82
2022/03/31 19:48:51;;;;;;;0.88;0.80;;;16.80;69.00;;;;;;2282021;62;30725;-77
2022/03/31 19:51:17;;;;;;;1.10;0.50;;;16.70;69.00;;;;;;2284035;62;30323;-78
2022/03/31 19:53:45;;;;;;;0.98;0.50;;;16.80;69.00;;;;;;2276020;62;30289;-78
2022/03/31 19:56:12;;;;;;;0.63;0.60;;;16.90;68.90;;;;;;2283181;62;30203;-78
2022/03/31 19:58:38;;;;;;;2.25;0.70;;;17.00;68.90;;;;;;2270002;62;30255;-79
2022/03/31 20:01:06;;;;;;;0.55;0.50;;;17.00;68.90;;;;;;2276168;62;30258;-78
2022/03/31 20:03:36;;;;;;;0.60;0.50;;;17.10;68.50;;;;;;2275968;62;30952;-78
2022/03/31 20:06:02;;;;;;;1.15;0.57;;;17.10;68.40;;;;;;2275829;62;30244;-82
2022/03/31 20:08:28;;;;;;;0.50;0.50;;;17.20;68.10;;;;;;2276471;62;30881;-79
2022/03/31 20:10:55;;;;;;;0.38;0.30;;;17.20;68.00;;;;;;2284191;62;30172;-80
2022/03/31 20:13:22;;;;;;;1.05;0.45;;;17.20;67.80;;;;;;2275789;62;30221;-80
2022/03/31 20:15:48;;;;;;;1.63;0.52;;;17.30;67.80;;;;;;2276558;62;30690;-79
2022/03/31 20:18:14;;;;;;;0.57;0.57;;;17.30;67.70;;;;;;2276526;62;30911;-80
2022/03/31 20:20:41;;;;;;;0.88;0.55;;;17.30;67.50;;;;;;2269818;62;31483;-79
2022/03/31 20:23:07;;;;;;;0.50;0.50;;;17.30;67.50;;;;;;2269896;62;30835;-79
2022/03/31 20:25:33;;;;;;;0.45;0.45;;;17.30;67.40;;;;;;2284165;62;30652;-80
2022/03/31 20:27:59;;;;;;;0.80;0.60;;;17.30;67.10;;;;;;2276439;62;30767;-79
2022/03/31 20:30:26;;;;;;;0.43;0.40;;;17.40;67.20;;;;;;2276246;62;30603;-79
2022/03/31 20:32:57;;;;;;;0.52;0.52;;;17.40;67.00;;;;;;2276673;62;30314;-80
2022/03/31 20:35:23;;;;;;;0.40;0.35;;;17.30;66.80;;;;;;2275620;62;30780;-80
2022/03/31 20:37:49;;;;;;;0.77;0.75;;;17.40;66.90;;;;;;2268995;62;30815;-78
2022/03/31 20:40:15;;;;;;;0.75;0.50;;;17.40;66.70;;;;;;2283911;62;30624;-80
2022/03/31 20:42:41;;;;;;;0.63;0.40;;;17.40;66.80;;;;;;2281676;62;30102;-81
2022/03/31 20:45:07;;;;;;;0.57;0.40;;;17.40;66.70;;;;;;2283172;62;30675;-80
2022/03/31 20:47:33;;;;;;;0.65;0.40;;;17.40;66.90;;;;;;2282819;62;30469;-83
2022/03/31 20:50:00;;;;;;;2.08;0.73;;;17.40;66.80;;;;;;2276257;62;30285;-80
2022/03/31 20:52:26;;;;;;;0.68;0.50;;;17.40;66.60;;;;;;2276174;62;30162;-81
2022/03/31 20:54:52;;;;;;;0.50;0.43;;;17.40;66.40;;;;;;2283630;62;30243;-81
2022/03/31 20:57:18;;;;;;;0.77;0.40;;;17.40;66.20;;;;;;2282973;62;30184;-80
2022/03/31 20:59:43;;;;;;;1.25;1.13;;;17.40;66.50;;;;;;2283108;62;30652;-80
2022/03/31 21:02:10;;;;;;;2.58;1.65;;;17.40;66.20;;;;;;2276074;62;30076;-82
2022/03/31 21:04:39;;;;;;;1.67;1.58;;;17.40;66.20;;;;;;2275132;62;30993;-81
2022/03/31 21:07:05;;;;;;;1.73;1.45;;;17.40;66.20;;;;;;2283695;62;30323;-80
2022/03/31 21:09:31;;;;;;;1.30;1.20;;;17.40;66.10;;;;;;2281061;62;30379;-81
2022/03/31 21:11:57;;;;;;;1.45;1.15;;;17.40;66.00;;;;;;2276141;62;30271;-80
2022/03/31 21:14:24;;;;;;;2.15;1.45;;;17.40;66.30;;;;;;2283584;62;30155;-79
2022/03/31 21:16:55;;;;;;;1.10;1.00;;;17.40;66.10;;;;;;2276032;62;31326;-80
2022/03/31 21:19:24;;;;;;;0.95;0.95;;;17.40;66.20;;;;;;2283152;62;30038;-80
2022/03/31 21:21:50;;;;;;;1.00;0.77;;;17.40;66.30;;;;;;2283427;62;30038;-78
2022/03/31 21:24:17;;;;;;;1.13;0.80;;;17.40;66.00;;;;;;2284009;62;30335;-80
2022/03/31 21:26:45;;;;;;;1.90;0.80;;;17.30;66.10;;;;;;2283583;62;30497;-82
2022/03/31 21:29:18;;;;;;;1.23;0.80;;;17.40;66.40;;;;;;2275825;62;30807;-81
2022/03/31 21:31:44;;;;;;;0.90;0.90;;;17.40;66.20;;;;;;2283953;62;30070;-78
2022/03/31 21:34:14;;;;;;;0.55;0.40;;;17.30;66.40;;;;;;2283745;62;30233;-79
2022/03/31 21:36:42;;;;;;;0.70;0.70;;;17.40;66.80;;;;;;2283806;62;30344;-82
2022/03/31 21:39:08;;;;;;;0.60;0.60;;;17.40;66.10;;;;;;2261589;62;30188;-82
2022/03/31 21:41:34;;;;;;;0.82;0.68;;;17.40;66.00;;;;;;2275513;62;30061;-80
2022/03/31 21:44:02;;;;;;;0.82;0.77;;;17.30;65.90;;;;;;2275375;62;30072;-81
2022/03/31 21:46:29;;;;;;;0.55;0.52;;;17.30;65.90;;;;;;2268151;62;30841;-81
2022/03/31 21:48:57;;;;;;;0.98;0.50;;;17.30;65.80;;;;;;2267662;62;31842;-80
2022/03/31 21:51:26;;;;;;;0.80;0.45;;;17.30;65.80;;;;;;2280152;62;30402;-80
2022/03/31 21:54:02;;;;;;;0.63;0.35;;;17.30;65.80;;;;;;2275879;62;30071;-79
2022/03/31 21:56:31;;;;;;;1.75;0.60;;;17.30;66.10;;;;;;2283067;62;30898;-78
2022/03/31 21:58:56;;;;;;;0.75;0.60;;;17.30;65.90;;;;;;2282583;62;30487;-78
2022/03/31 22:01:29;;;;;;;1.13;0.68;;;17.10;65.50;;;;;;2282870;62;30201;-80
2022/03/31 22:03:56;;;;;;;3.88;0.60;;;17.10;65.20;;;;;;2277058;62;30156;-85
